KPTT

Pratt Regional Airport

Pratt, Kansas, USA
METAR KPTT 252155Z AUTO 14007KT 10SM CLR 31/16 A2988 RMK AO2 T03080161
Observed Flight Rules
May-25 @ 21:55 UTC (27 minutes ago) Visual Flight Rules
Wind Visibility Clouds
140° at 7 knots 10 miles
  • Clear skies
Temperatures Readings
Current 31°C / 88°F
Dewpoint 16°C / 61°F
Humidity 40%
Altimeter 29.88" Hg
Pressure 1012 hPa
Elevation 595
METAR KPTT 252155Z AUTO 14007KT 10SM CLR 31/16 A2988 RMK AO2 T03080161
Observed Flight Rules
May-25 @ 21:55 UTC
(27 minutes ago)
VFR
Wind Visibility
140° at 7 knots 10 miles
Clouds
  • Clear skies
Temperature Dewpoint
31°C / 88°F 16°C / 61°F
Humidity Altimeter Pressure
40% 29.88" Hg 1012 hPa